createdAt,value
2023-08-02T00:00:43.088Z,100.00
2023-08-02T00:03:29.354Z,100.00
2023-08-02T00:06:15.974Z,100.00
2023-08-02T00:09:02.414Z,100.00
2023-08-02T00:11:52.346Z,100.00
2023-08-02T00:14:38.951Z,100.00
2023-08-02T00:17:25.461Z,100.00
2023-08-02T00:20:12.449Z,100.00
2023-08-02T00:22:59.093Z,100.00
2023-08-02T00:25:45.639Z,100.00
2023-08-02T00:28:32.379Z,100.00
2023-08-02T00:31:18.711Z,100.00
2023-08-02T00:34:05.241Z,100.00
2023-08-02T00:36:51.721Z,100.00
2023-08-02T00:39:39.306Z,100.00
2023-08-02T00:42:26.591Z,100.00
2023-08-02T00:45:12.792Z,100.00
2023-08-02T00:47:59.974Z,100.00
2023-08-02T00:50:46.477Z,100.00
2023-08-02T00:53:32.942Z,100.00
2023-08-02T00:56:19.293Z,100.00
2023-08-02T00:59:05.822Z,100.00
2023-08-02T01:01:52.111Z,100.00
2023-08-02T01:04:39.174Z,100.00
2023-08-02T01:07:41.421Z,100.00
2023-08-02T01:10:40.477Z,100.00
2023-08-02T01:13:28.383Z,100.00
2023-08-02T01:16:16.467Z,100.00
2023-08-02T01:19:09.247Z,100.00
2023-08-02T01:21:55.374Z,100.00
2023-08-02T01:24:42.939Z,100.00
2023-08-02T01:27:37.717Z,100.00
2023-08-02T01:30:30.647Z,100.00
2023-08-02T01:33:18.290Z,100.00
2023-08-02T01:36:05.355Z,100.00
2023-08-02T01:38:54.994Z,100.00
2023-08-02T01:41:41.309Z,100.00
2023-08-02T01:44:27.686Z,100.00
2023-08-02T01:47:16.098Z,100.00
2023-08-02T01:50:02.346Z,100.00
2023-08-02T01:52:50.339Z,100.00
2023-08-02T01:55:36.686Z,100.00
2023-08-02T01:58:24.860Z,100.00
2023-08-02T02:01:11.079Z,100.00
2023-08-02T02:03:57.487Z,100.00
2023-08-02T02:06:44.390Z,100.00
2023-08-02T02:09:30.937Z,100.00
2023-08-02T02:12:17.530Z,100.00
2023-08-02T02:15:03.991Z,100.00
2023-08-02T02:17:50.246Z,100.00
2023-08-02T02:20:36.615Z,100.00
2023-08-02T02:23:23.072Z,100.00
2023-08-02T02:26:09.802Z,100.00
2023-08-02T02:28:56.370Z,100.00
2023-08-02T02:31:43.394Z,100.00
2023-08-02T02:34:29.659Z,100.00
2023-08-02T02:37:16.246Z,100.00
2023-08-02T02:40:02.882Z,100.00
2023-08-02T02:42:49.110Z,100.00
2023-08-02T02:45:35.715Z,100.00
2023-08-02T02:48:21.998Z,100.00
2023-08-02T02:51:08.463Z,100.00
2023-08-02T02:53:55.083Z,100.00
2023-08-02T02:56:41.864Z,100.00
2023-08-02T02:59:28.413Z,100.00
2023-08-02T03:02:15.081Z,100.00
2023-08-02T03:05:01.293Z,100.00
2023-08-02T03:07:47.801Z,100.00
2023-08-02T03:10:34.247Z,100.00
2023-08-02T03:13:20.624Z,100.00
2023-08-02T03:16:07.111Z,100.00
2023-08-02T03:18:55.895Z,100.00
2023-08-02T03:21:44.578Z,100.00
2023-08-02T03:24:31.039Z,100.00
2023-08-02T03:27:17.449Z,100.00
2023-08-02T03:30:04.507Z,100.00
2023-08-02T03:32:50.983Z,100.00
2023-08-02T03:35:37.588Z,100.00
2023-08-02T03:38:24.042Z,100.00
2023-08-02T03:41:10.638Z,100.00
2023-08-02T03:43:56.921Z,100.00
2023-08-02T03:46:43.626Z,100.00
2023-08-02T03:49:30.084Z,100.00
2023-08-02T03:52:16.657Z,100.00
2023-08-02T03:55:02.864Z,100.00
2023-08-02T03:57:48.942Z,100.00
2023-08-02T04:00:35.582Z,100.00
2023-08-02T04:03:22.132Z,100.00
2023-08-02T04:06:08.478Z,100.00
2023-08-02T04:08:54.802Z,100.00
2023-08-02T04:11:41.409Z,100.00
2023-08-02T04:14:27.875Z,100.00
2023-08-02T04:17:14.413Z,100.00
2023-08-02T04:20:02.386Z,100.00
2023-08-02T04:22:50.768Z,100.00
2023-08-02T04:25:37.001Z,100.00
2023-08-02T04:28:23.677Z,100.00
2023-08-02T04:31:09.943Z,100.00
2023-08-02T04:33:57.249Z,100.00
2023-08-02T04:36:43.627Z,100.00
2023-08-02T04:39:30.250Z,100.00
2023-08-02T04:42:17.692Z,100.00
2023-08-02T04:45:04.656Z,100.00
2023-08-02T04:47:51.248Z,100.00
2023-08-02T04:50:38.627Z,100.00
2023-08-02T04:53:24.925Z,100.00
2023-08-02T04:56:11.362Z,100.00
2023-08-02T04:58:58.151Z,100.00
2023-08-02T05:01:44.695Z,100.00
2023-08-02T05:04:31.654Z,100.00
2023-08-02T05:07:17.922Z,100.00
2023-08-02T05:10:07.841Z,100.00
2023-08-02T05:12:54.656Z,100.00
2023-08-02T05:15:40.934Z,100.00
2023-08-02T05:18:27.545Z,100.00
2023-08-02T05:21:15.596Z,100.00
2023-08-02T05:24:02.202Z,100.00
2023-08-02T05:26:49.350Z,100.00
2023-08-02T05:29:35.852Z,100.00
2023-08-02T05:32:22.255Z,100.00
2023-08-02T05:35:09.011Z,100.00
2023-08-02T05:37:55.414Z,100.00
2023-08-02T05:40:41.622Z,100.00
2023-08-02T05:43:28.310Z,100.00
2023-08-02T05:46:14.532Z,100.00
2023-08-02T05:49:01.334Z,100.00
2023-08-02T05:51:47.728Z,100.00
2023-08-02T05:54:34.206Z,100.00
2023-08-02T05:57:20.655Z,100.00
2023-08-02T06:00:08.341Z,100.00
2023-08-02T06:02:54.687Z,100.00
2023-08-02T06:05:40.988Z,100.00
2023-08-02T06:08:27.599Z,100.00
2023-08-02T06:11:14.104Z,100.00
2023-08-02T06:14:00.428Z,100.00
2023-08-02T06:16:46.629Z,100.00
2023-08-02T06:19:32.966Z,100.00
2023-08-02T06:22:19.534Z,100.00
2023-08-02T06:25:06.755Z,100.00
2023-08-02T06:27:53.085Z,100.00
2023-08-02T06:30:39.452Z,100.00
2023-08-02T06:33:26.039Z,100.00
2023-08-02T06:36:12.663Z,100.00
2023-08-02T06:38:58.817Z,100.00
2023-08-02T06:41:45.473Z,100.00
2023-08-02T06:44:33.250Z,100.00
2023-08-02T06:47:19.490Z,100.00
2023-08-02T06:50:06.509Z,100.00
2023-08-02T06:52:53.022Z,100.00
2023-08-02T06:55:39.274Z,100.00
2023-08-02T06:58:25.849Z,100.00
2023-08-02T07:01:22.825Z,100.00
2023-08-02T07:04:09.424Z,100.00
2023-08-02T07:06:55.533Z,100.00
2023-08-02T07:09:42.092Z,100.00
2023-08-02T07:12:29.333Z,100.00
2023-08-02T07:15:15.779Z,100.00
2023-08-02T07:18:02.254Z,100.00
2023-08-02T07:20:48.717Z,100.00
2023-08-02T07:23:36.075Z,100.00
2023-08-02T07:26:23.795Z,100.00
2023-08-02T07:29:10.302Z,100.00
2023-08-02T07:31:56.740Z,100.00
2023-08-02T07:34:43.301Z,100.00
2023-08-02T07:37:29.890Z,100.00
2023-08-02T07:40:16.569Z,100.00
2023-08-02T07:43:02.789Z,100.00
2023-08-02T07:45:49.192Z,100.00
2023-08-02T07:48:35.392Z,100.00
2023-08-02T07:51:22.056Z,100.00
2023-08-02T07:54:08.744Z,100.00
2023-08-02T07:56:55.114Z,100.00
2023-08-02T07:59:41.559Z,100.00
2023-08-02T08:02:28.619Z,100.00
2023-08-02T08:05:15.163Z,100.00
2023-08-02T08:08:01.473Z,100.00
2023-08-02T08:10:52.480Z,100.00
2023-08-02T08:13:39.130Z,100.00
2023-08-02T08:16:25.412Z,100.00
2023-08-02T08:19:11.948Z,100.00
2023-08-02T08:21:58.742Z,100.00
2023-08-02T08:24:45.224Z,100.00
2023-08-02T08:27:31.642Z,100.00
2023-08-02T08:30:18.164Z,100.00
2023-08-02T08:33:04.452Z,100.00
2023-08-02T08:35:50.733Z,100.00
2023-08-02T08:38:37.171Z,100.00
2023-08-02T08:41:23.790Z,100.00
2023-08-02T08:44:10.253Z,100.00
2023-08-02T08:47:00.369Z,100.00
2023-08-02T08:49:48.114Z,100.00
2023-08-02T08:52:36.902Z,100.00
2023-08-02T08:55:28.058Z,100.00
2023-08-02T08:58:15.003Z,100.00
2023-08-02T09:01:04.749Z,100.00
2023-08-02T09:03:51.116Z,100.00
2023-08-02T09:06:37.789Z,100.00
2023-08-02T09:09:24.402Z,100.00
2023-08-02T09:12:10.749Z,100.00
2023-08-02T09:15:08.465Z,100.00
2023-08-02T09:17:55.958Z,100.00
2023-08-02T09:20:53.201Z,100.00
2023-08-02T09:23:39.886Z,100.00
2023-08-02T09:26:26.459Z,100.00
2023-08-02T09:29:13.766Z,100.00
2023-08-02T09:32:00.758Z,100.00
2023-08-02T09:34:59.696Z,100.00
2023-08-02T09:37:46.128Z,100.00
2023-08-02T09:40:49.401Z,100.00
2023-08-02T09:43:45.451Z,100.00
2023-08-02T09:46:37.212Z,100.00
2023-08-02T09:49:24.574Z,100.00
2023-08-02T09:52:11.507Z,100.00
2023-08-02T09:54:58.101Z,100.00
2023-08-02T09:57:47.711Z,100.00
2023-08-02T10:00:34.155Z,100.00
2023-08-02T10:03:25.922Z,100.00
2023-08-02T10:06:13.608Z,100.00
2023-08-02T10:09:06.605Z,100.00
2023-08-02T10:12:07.673Z,100.00
2023-08-02T10:14:57.726Z,100.00
2023-08-02T10:17:44.816Z,100.00
2023-08-02T10:20:31.195Z,100.00
2023-08-02T10:23:17.395Z,100.00
2023-08-02T10:26:04.006Z,100.00
2023-08-02T10:28:50.610Z,100.00
2023-08-02T10:31:37.202Z,100.00
2023-08-02T10:34:35.586Z,100.00
2023-08-02T10:37:22.036Z,100.00
2023-08-02T10:40:08.381Z,100.00
2023-08-02T10:43:06.285Z,100.00
2023-08-02T10:46:18.413Z,100.00
2023-08-02T10:49:10.745Z,100.00
2023-08-02T10:51:58.110Z,100.00
2023-08-02T10:55:03.910Z,100.00
2023-08-02T10:57:56.301Z,100.00
2023-08-02T11:00:43.078Z,100.00
2023-08-02T11:03:30.349Z,100.00
2023-08-02T11:06:27.816Z,100.00
2023-08-02T11:09:14.320Z,100.00
2023-08-02T11:12:14.968Z,100.00
2023-08-02T11:15:01.689Z,100.00
2023-08-02T11:17:54.887Z,100.00
2023-08-02T11:20:41.663Z,100.00
2023-08-02T11:23:28.005Z,100.00
2023-08-02T11:26:16.422Z,100.00
2023-08-02T11:29:08.956Z,100.00
2023-08-02T11:31:55.791Z,100.00
2023-08-02T11:34:43.923Z,100.00
2023-08-02T11:37:30.132Z,100.00
2023-08-02T11:43:08.209Z,100.00
2023-08-02T11:45:54.947Z,100.00
2023-08-02T11:48:42.036Z,100.00
2023-08-02T11:51:28.361Z,100.00
2023-08-02T11:54:15.432Z,100.00
2023-08-02T11:57:05.010Z,100.00
2023-08-02T11:59:53.553Z,100.00
2023-08-02T12:02:39.960Z,100.00
2023-08-02T12:05:26.935Z,100.00
2023-08-02T12:08:14.186Z,100.00
2023-08-02T12:11:00.452Z,100.00
2023-08-02T12:13:46.892Z,100.00
2023-08-02T12:16:44.363Z,100.00
2023-08-02T12:19:39.194Z,100.00
2023-08-02T12:22:25.761Z,100.00
2023-08-02T12:25:12.101Z,100.00
2023-08-02T12:28:04.901Z,100.00
2023-08-02T12:31:02.076Z,100.00
2023-08-02T12:33:49.598Z,100.00
2023-08-02T12:36:36.239Z,100.00
2023-08-02T12:39:23.633Z,100.00
2023-08-02T12:42:10.322Z,100.00
2023-08-02T12:45:02.014Z,100.00
2023-08-02T12:47:58.719Z,100.00
2023-08-02T12:50:45.571Z,100.00
2023-08-02T12:53:32.435Z,100.00
2023-08-02T12:56:19.136Z,100.00
2023-08-02T12:59:05.510Z,100.00
2023-08-02T13:01:51.992Z,100.00
2023-08-02T13:04:39.319Z,100.00
2023-08-02T13:07:35.819Z,100.00
2023-08-02T13:10:29.594Z,100.00
2023-08-02T13:13:15.745Z,100.00
2023-08-02T13:16:02.161Z,100.00
2023-08-02T13:18:48.769Z,100.00
2023-08-02T13:21:35.426Z,100.00
2023-08-02T13:24:21.850Z,100.00
2023-08-02T13:27:08.184Z,100.00
2023-08-02T13:29:54.491Z,100.00
2023-08-02T13:32:41.103Z,100.00
2023-08-02T13:35:27.521Z,100.00
2023-08-02T13:38:14.254Z,100.00
2023-08-02T13:41:01.668Z,100.00
2023-08-02T13:43:47.927Z,100.00
2023-08-02T13:46:34.415Z,100.00
2023-08-02T13:49:21.029Z,100.00
2023-08-02T13:52:07.634Z,100.00
2023-08-02T13:54:53.918Z,100.00
2023-08-02T13:57:40.443Z,100.00
2023-08-02T14:00:26.753Z,100.00
2023-08-02T14:03:13.089Z,100.00
2023-08-02T14:05:59.869Z,100.00
2023-08-02T14:08:46.295Z,99.51
2023-08-02T14:11:32.470Z,98.40
2023-08-02T14:14:19.007Z,100.00
2023-08-02T14:17:05.969Z,100.00
2023-08-02T14:19:52.537Z,100.00
2023-08-02T14:22:38.800Z,100.00
2023-08-02T14:25:25.257Z,100.00
2023-08-02T14:28:11.476Z,100.00
2023-08-02T14:31:00.857Z,100.00
2023-08-02T14:33:47.630Z,100.00
2023-08-02T14:36:34.271Z,100.00
2023-08-02T14:39:20.973Z,100.00
2023-08-02T14:42:07.454Z,100.00
2023-08-02T14:44:53.516Z,100.00
2023-08-02T14:47:40.119Z,100.00
2023-08-02T14:50:27.790Z,100.00
2023-08-02T14:53:14.053Z,100.00
2023-08-02T14:56:00.601Z,100.00
2023-08-02T14:58:47.018Z,100.00
2023-08-02T15:01:33.499Z,100.00
2023-08-02T15:04:21.086Z,100.00
2023-08-02T15:07:07.384Z,100.00
2023-08-02T15:09:53.647Z,100.00
2023-08-02T15:12:40.213Z,100.00
2023-08-02T15:15:26.603Z,100.00
2023-08-02T15:18:13.253Z,100.00
2023-08-02T15:21:02.114Z,100.00
2023-08-02T15:23:51.801Z,100.00
2023-08-02T15:26:38.798Z,100.00
2023-08-02T15:29:26.311Z,100.00
2023-08-02T15:32:12.858Z,100.00
2023-08-02T15:34:59.345Z,100.00
2023-08-02T15:37:48.688Z,100.00
2023-08-02T15:40:35.199Z,100.00
2023-08-02T15:43:21.995Z,98.25
2023-08-02T15:46:08.274Z,99.33
2023-08-02T15:48:54.941Z,91.82
2023-08-02T15:51:42.408Z,94.91
2023-08-02T15:54:29.925Z,87.04
2023-08-02T15:57:16.232Z,87.68
2023-08-02T16:00:02.990Z,85.73
2023-08-02T16:02:58.042Z,82.86
2023-08-02T16:05:44.259Z,82.62
2023-08-02T16:08:31.051Z,76.91
2023-08-02T16:11:17.445Z,76.44
2023-08-02T16:14:03.878Z,78.30
2023-08-02T16:16:50.123Z,79.02
2023-08-02T16:19:38.593Z,78.31
2023-08-02T16:22:25.042Z,78.10
2023-08-02T16:25:11.245Z,77.31
2023-08-02T16:27:57.655Z,75.50
2023-08-02T16:30:44.256Z,75.08
2023-08-02T16:33:30.684Z,79.33
2023-08-02T16:36:17.045Z,76.17
2023-08-02T16:39:03.658Z,75.33
2023-08-02T16:41:50.040Z,76.51
2023-08-02T16:44:36.243Z,78.25
2023-08-02T16:47:22.798Z,77.69
2023-08-02T16:50:13.914Z,77.50
2023-08-02T16:53:00.488Z,77.54
2023-08-02T16:55:47.183Z,84.62
2023-08-02T16:58:33.825Z,90.51
2023-08-02T17:01:20.144Z,94.42
2023-08-02T17:04:07.162Z,99.78
2023-08-02T17:06:53.606Z,100.00
2023-08-02T17:09:40.877Z,100.00
2023-08-02T17:12:27.444Z,100.00
2023-08-02T17:15:14.048Z,100.00
2023-08-02T17:18:00.445Z,100.00
2023-08-02T17:20:46.885Z,100.00
2023-08-02T17:23:33.246Z,100.00
2023-08-02T17:26:19.950Z,100.00
2023-08-02T17:29:06.513Z,100.00
2023-08-02T17:31:52.979Z,100.00
2023-08-02T17:34:39.390Z,100.00
2023-08-02T17:37:26.060Z,100.00
2023-08-02T17:40:12.561Z,100.00
2023-08-02T17:42:59.459Z,100.00
2023-08-02T17:45:46.104Z,100.00
2023-08-02T17:48:32.519Z,100.00
2023-08-02T17:51:19.229Z,100.00
2023-08-02T17:54:05.716Z,100.00
2023-08-02T17:56:51.991Z,100.00
2023-08-02T17:59:38.545Z,100.00
2023-08-02T18:02:24.996Z,100.00
2023-08-02T18:05:11.259Z,100.00
2023-08-02T18:07:57.672Z,100.00
2023-08-02T18:10:44.186Z,100.00
2023-08-02T18:13:31.438Z,100.00
2023-08-02T18:16:18.117Z,100.00
2023-08-02T18:19:04.702Z,100.00
2023-08-02T18:21:53.237Z,100.00
2023-08-02T18:24:42.826Z,100.00
2023-08-02T18:27:30.018Z,99.88
2023-08-02T18:30:16.701Z,99.91
2023-08-02T18:33:02.867Z,100.00
2023-08-02T18:35:49.590Z,100.00
2023-08-02T18:38:37.084Z,100.00
2023-08-02T18:41:24.635Z,99.13
2023-08-02T18:44:10.927Z,99.77
2023-08-02T18:46:57.403Z,99.22
2023-08-02T18:49:43.901Z,98.55
2023-08-02T18:52:35.947Z,97.89
2023-08-02T18:55:22.653Z,100.00
2023-08-02T18:58:09.566Z,100.00
2023-08-02T19:00:55.777Z,100.00
2023-08-02T19:03:42.971Z,100.00
2023-08-02T19:06:29.320Z,100.00
2023-08-02T19:09:15.682Z,100.00
2023-08-02T19:12:03.674Z,100.00
2023-08-02T19:14:50.443Z,100.00
2023-08-02T19:17:40.334Z,100.00
2023-08-02T19:20:27.695Z,100.00
2023-08-02T19:23:18.098Z,100.00
2023-08-02T19:26:04.453Z,100.00
2023-08-02T19:28:52.257Z,100.00
2023-08-02T19:31:38.792Z,100.00
2023-08-02T19:34:33.775Z,100.00
2023-08-02T19:37:27.387Z,100.00
2023-08-02T19:40:13.851Z,100.00
2023-08-02T19:43:00.137Z,100.00
2023-08-02T19:45:46.797Z,100.00
2023-08-02T19:48:37.418Z,100.00
2023-08-02T19:51:23.701Z,100.00
2023-08-02T19:54:11.870Z,100.00
2023-08-02T19:57:00.888Z,100.00
2023-08-02T19:59:47.111Z,100.00
2023-08-02T20:02:33.750Z,100.00
2023-08-02T20:06:00.579Z,100.00
2023-08-02T20:08:47.493Z,100.00
2023-08-02T20:11:34.028Z,100.00
2023-08-02T20:14:21.798Z,99.38
2023-08-02T20:17:14.778Z,94.02
2023-08-02T20:20:01.280Z,92.49
2023-08-02T20:22:47.657Z,93.03
2023-08-02T20:25:34.157Z,88.69
2023-08-02T20:28:20.930Z,88.34
2023-08-02T20:31:23.526Z,89.44
2023-08-02T20:34:11.787Z,90.33
2023-08-02T20:37:00.905Z,90.95
2023-08-02T20:39:47.381Z,93.90
2023-08-02T20:42:33.962Z,95.22
2023-08-02T20:45:20.940Z,97.10
2023-08-02T20:48:11.305Z,99.31
2023-08-02T20:50:57.829Z,100.00
2023-08-02T20:53:44.371Z,100.00
2023-08-02T20:56:30.672Z,100.00
2023-08-02T20:59:18.544Z,100.00
2023-08-02T21:02:21.538Z,100.00
2023-08-02T21:05:08.683Z,100.00
2023-08-02T21:07:57.249Z,100.00
2023-08-02T21:10:44.056Z,100.00
2023-08-02T21:13:30.306Z,100.00
2023-08-02T21:16:16.505Z,100.00
2023-08-02T21:19:03.173Z,100.00
2023-08-02T21:21:55.159Z,100.00
2023-08-02T21:24:41.372Z,100.00
2023-08-02T21:27:28.562Z,100.00
2023-08-02T21:30:15.921Z,100.00
2023-08-02T21:33:03.621Z,100.00
2023-08-02T21:35:55.824Z,100.00
2023-08-02T21:38:43.486Z,100.00
2023-08-02T21:41:31.384Z,100.00
2023-08-02T21:44:19.165Z,100.00
2023-08-02T21:47:06.396Z,100.00
2023-08-02T21:49:53.320Z,100.00
2023-08-02T21:52:40.361Z,100.00
2023-08-02T21:55:27.066Z,100.00
2023-08-02T21:58:17.628Z,100.00
2023-08-02T22:01:04.251Z,100.00
2023-08-02T22:03:51.079Z,100.00
2023-08-02T22:06:37.703Z,100.00
2023-08-02T22:09:24.055Z,100.00
2023-08-02T22:12:11.446Z,100.00
2023-08-02T22:15:04.481Z,97.43
2023-08-02T22:17:54.242Z,94.05
2023-08-02T22:20:41.485Z,91.25
2023-08-02T22:23:27.968Z,90.20
2023-08-02T22:26:14.272Z,89.09
2023-08-02T22:29:00.806Z,88.79
2023-08-02T22:31:47.394Z,85.60
2023-08-02T22:34:33.657Z,84.94
2023-08-02T22:37:20.169Z,83.81
2023-08-02T22:40:08.486Z,86.71
2023-08-02T22:42:56.435Z,83.99
2023-08-02T22:45:42.969Z,80.71
2023-08-02T22:49:45.005Z,81.04
2023-08-02T22:51:35.646Z,82.02
2023-08-02T22:54:22.150Z,80.73
2023-08-02T22:57:32.536Z,77.66
2023-08-02T23:00:26.056Z,76.92
2023-08-02T23:03:39.073Z,77.37
2023-08-02T23:06:29.200Z,77.34
2023-08-02T23:09:15.586Z,79.29
2023-08-02T23:12:02.230Z,79.84
2023-08-02T23:14:56.439Z,78.64
2023-08-02T23:17:42.756Z,78.12
2023-08-02T23:20:39.943Z,82.19
2023-08-02T23:23:27.018Z,80.75
2023-08-02T23:26:14.462Z,79.91
2023-08-02T23:29:01.187Z,81.25
2023-08-02T23:31:49.564Z,80.17
2023-08-02T23:34:36.023Z,76.93
2023-08-02T23:37:22.441Z,78.93
2023-08-02T23:40:09.608Z,80.60
2023-08-02T23:42:55.842Z,82.20
2023-08-02T23:45:43.684Z,83.73
2023-08-02T23:48:30.493Z,85.84
2023-08-02T23:51:17.678Z,84.43
2023-08-02T23:54:06.174Z,86.22
2023-08-02T23:56:52.819Z,85.24
2023-08-02T23:59:39.231Z,83.57
